Time;durP1;ratioP1;P1;durP2;ratioP2;P2;SDS_P1;SDS_P2;PMS_P1;PMS_P2;Temp;Humidity;BMP_temperature;BMP_pressure;BME280_temperature;BME280_humidity;BME280_pressure;Samples;Min_cycle;Max_cycle;Signal;HPM_P1;HPM_P2
2022/11/02 00:02:21;;;;;;;2.77;2.63;;;;;;;-142.65;70.27;50170.78;5116158;28;20683;-70
2022/11/02 00:04:47;;;;;;;4.17;2.20;;;;;;;-142.65;70.49;50164.81;5116219;28;20699;-70
2022/11/02 00:07:13;;;;;;;3.10;2.30;;;;;;;;;;5116436;28;20192;-70
2022/11/02 00:09:40;;;;;;;6.10;1.47;;;;;;;-142.65;70.56;50174.75;5116113;28;20193;-70
2022/11/02 00:12:06;;;;;;;8.07;1.90;;;;;;;-142.65;70.50;50168.78;5115998;28;20204;-70
2022/11/02 00:14:32;;;;;;;4.77;1.83;;;;;;;-142.65;70.59;50168.78;5116046;28;20686;-70
2022/11/02 00:16:59;;;;;;;4.43;2.30;;;;;;;-142.65;70.53;50170.78;5115972;28;20191;-70
2022/11/02 00:19:25;;;;;;;2.77;2.63;;;;;;;-142.65;70.45;50174.75;5115974;28;20551;-70
2022/11/02 00:21:52;;;;;;;2.43;2.27;;;;;;;-142.65;71.38;50170.78;5116362;28;20224;-70
2022/11/02 00:24:18;;;;;;;3.83;2.37;;;;;;;-142.65;72.29;50172.78;5115890;28;20185;-70
2022/11/02 00:26:44;;;;;;;8.00;2.40;;;;;;;-142.65;73.55;50164.81;5115874;28;20638;-70
2022/11/02 00:29:11;;;;;;;3.07;2.23;;;;;;;-142.65;73.86;50174.75;5116073;28;20647;-70
2022/11/02 00:31:37;;;;;;;5.13;2.00;;;;;;;-142.65;74.31;50170.78;5097362;28;20205;-70
2022/11/02 00:34:03;;;;;;;8.53;2.27;;;;;;;-142.65;74.56;50176.75;5097452;28;20207;-70
2022/11/02 00:36:30;;;;;;;7.73;2.13;;;;;;;-142.65;74.75;50172.78;5116198;28;20191;-70
2022/11/02 00:38:56;;;;;;;5.00;2.23;;;;;;;;;;5097894;28;20182;-70
2022/11/02 00:41:22;;;;;;;3.27;2.37;;;;;;;-142.65;74.74;50170.78;5097177;28;20678;-70
2022/11/02 00:43:49;;;;;;;4.30;2.03;;;;;;;-142.65;74.80;50170.78;5115543;28;20181;-70
2022/11/02 00:46:15;;;;;;;3.37;2.53;;;;;;;-142.65;74.60;50168.78;5115768;28;20185;-70
2022/11/02 00:48:41;;;;;;;3.80;1.87;;;;;;;-142.65;74.37;50180.75;5115644;28;20185;-70
2022/11/02 00:51:09;;;;;;;5.97;2.33;;;;;;;-142.65;74.04;50170.78;5097291;28;20235;-70
2022/11/02 00:53:35;;;;;;;6.67;2.90;;;;;;;-142.65;73.73;50174.75;5097278;28;20220;-70
2022/11/02 00:56:02;;;;;;;6.83;2.57;;;;;;;-142.65;74.19;50172.78;5096744;28;20196;-70
2022/11/02 00:58:28;;;;;;;3.17;2.10;;;;;;;-142.65;74.34;50174.75;5096925;28;20223;-70
2022/11/02 01:00:56;;;;;;;4.30;2.10;;;;;;;-142.65;73.88;50170.78;5097828;28;20213;-70
2022/11/02 01:03:22;;;;;;;4.03;2.10;;;;;;;-142.65;73.73;50170.78;5115109;28;20178;-70
2022/11/02 01:05:48;;;;;;;5.57;2.83;;;;;;;-142.65;73.78;50170.78;5115352;28;20185;-70
2022/11/02 01:08:15;;;;;;;6.33;1.80;;;;;;;-142.65;73.93;50178.75;5115636;28;20275;-70
2022/11/02 01:10:42;;;;;;;3.97;2.57;;;;;;;-142.65;73.74;50172.78;5115213;28;20181;-70
2022/11/02 01:13:15;;;;;;;2.57;2.47;;;;;;;-142.65;73.80;50176.75;5114808;28;20204;-70
2022/11/02 01:15:42;;;;;;;2.53;2.33;;;;;;;-142.65;73.98;50170.78;5115159;28;20177;-70
2022/11/02 01:18:08;;;;;;;5.50;2.67;;;;;;;-142.65;73.65;50172.78;5114801;28;20203;-70
2022/11/02 01:20:34;;;;;;;5.33;2.50;;;;;;;-142.65;73.78;50168.78;5115051;28;20181;-70
2022/11/02 01:23:01;;;;;;;12.23;2.57;;;;;;;-142.65;74.08;50180.75;5114814;28;20228;-70
2022/11/02 01:25:27;;;;;;;2.83;2.57;;;;;;;-142.65;74.06;50172.78;5096400;28;20197;-70
2022/11/02 01:27:53;;;;;;;3.63;2.70;;;;;;;-142.65;73.68;50176.75;5096630;28;20201;-70
2022/11/02 01:30:20;;;;;;;5.97;2.70;;;;;;;-142.65;73.93;50172.78;5114831;28;20674;-68
2022/11/02 01:32:46;;;;;;;4.93;2.70;;;;;;;-142.65;73.87;50164.81;5114502;28;20231;-68
2022/11/02 01:35:12;;;;;;;3.60;2.53;;;;;;;-142.65;74.08;50168.78;5114507;28;20190;-68
2022/11/02 01:37:39;;;;;;;3.90;2.33;;;;;;;-142.65;74.22;50178.75;5114721;28;20650;-68
2022/11/02 01:40:07;;;;;;;3.13;2.23;;;;;;;-142.65;73.87;50170.78;5114917;28;20276;-68
2022/11/02 01:42:34;;;;;;;3.30;2.53;;;;;;;-142.65;74.09;50180.75;5114215;28;20220;-68
2022/11/02 01:45:00;;;;;;;4.93;2.07;;;;;;;-142.65;74.14;50172.78;5114307;28;20189;-68
2022/11/02 01:47:31;;;;;;;7.90;3.17;;;;;;;-142.65;74.07;50174.75;5096024;28;20197;-67
2022/11/02 01:50:05;;;;;;;9.57;1.93;;;;;;;-142.65;74.36;50168.78;5114264;28;20178;-67
2022/11/02 01:52:34;;;;;;;2.23;1.83;;;;;;;-142.65;74.22;50176.75;5114733;28;20205;-68
2022/11/02 01:55:11;;;;;;;5.23;2.47;;;;;;;-142.65;74.34;50178.75;5095907;28;20197;-69
2022/11/02 01:57:40;;;;;;;3.30;1.93;;;;;;;-142.65;74.44;50174.75;5095965;28;20195;-69
2022/11/02 02:00:11;;;;;;;3.60;2.27;;;;;;;-142.65;74.23;50170.78;5095865;28;20306;-70
2022/11/02 02:03:07;;;;;;;2.40;2.30;;;;;;;-142.65;74.39;50172.78;5114286;28;20217;-70
2022/11/02 02:05:48;;;;;;;2.70;2.50;;;;;;;-142.65;74.34;50174.75;5093088;28;20189;-70
2022/11/02 02:08:19;;;;;;;2.10;1.90;;;;;;;-142.65;74.47;50174.75;5095177;28;20230;-70
2022/11/02 02:10:45;;;;;;;5.10;2.43;;;;;;;-142.65;74.41;50170.78;5095876;28;20197;-70
2022/11/02 02:13:13;;;;;;;3.10;2.70;;;;;;;-142.65;74.95;50174.75;5095675;28;20211;-70
2022/11/02 02:16:25;;;;;;;6.63;3.00;;;;;;;-142.65;74.70;50176.75;5095645;28;20192;-70
2022/11/02 02:19:05;;;;;;;6.20;2.43;;;;;;;-142.65;74.53;50180.75;5113840;28;20201;-70
2022/11/02 02:21:44;;;;;;;2.63;1.90;;;;;;;;;;5095445;28;20663;-69
2022/11/02 02:24:46;;;;;;;5.17;2.20;;;;;;;-142.65;74.74;50168.78;5113772;28;20188;-70
2022/11/02 02:27:20;;;;;;;3.07;1.80;;;;;;;-142.65;74.87;50182.72;5095503;28;20180;-70
2022/11/02 02:30:06;;;;;;;4.20;2.13;;;;;;;-142.65;74.95;50168.78;5095577;28;20185;-70
2022/11/02 02:32:42;;;;;;;4.07;2.00;;;;;;;-142.65;74.58;50170.78;5095410;28;20723;-70
2022/11/02 02:35:20;;;;;;;2.37;2.27;;;;;;;-142.65;74.20;50176.75;5096553;28;20183;-70
2022/11/02 02:37:55;;;;;;;5.07;2.50;;;;;;;-142.65;74.15;50168.78;5095510;28;20535;-70
2022/11/02 02:40:40;;;;;;;3.27;2.57;;;;;;;-142.65;74.12;50172.78;5095401;28;20181;-70
2022/11/02 02:43:12;;;;;;;2.77;2.70;;;;;;;-142.65;74.25;50182.72;5113809;28;20615;-70
2022/11/02 02:45:53;;;;;;;4.13;2.47;;;;;;;-142.65;74.23;50180.75;5113842;28;20618;-70
2022/11/02 02:48:22;;;;;;;5.10;2.53;;;;;;;-142.65;74.06;50170.78;5095382;28;20196;-70
2022/11/02 02:50:50;;;;;;;2.90;2.67;;;;;;;-142.65;73.97;50172.78;5095262;28;20560;-70
2022/11/02 02:53:23;;;;;;;6.40;2.43;;;;;;;-142.65;74.23;50170.78;5095166;28;20607;-70
2022/11/02 02:55:50;;;;;;;4.10;1.73;;;;;;;-142.65;74.28;50168.78;5095291;28;20189;-70
2022/11/02 02:58:21;;;;;;;5.77;2.10;;;;;;;-142.65;74.14;50170.78;5095717;28;20594;-70
2022/11/02 03:00:48;;;;;;;3.27;2.20;;;;;;;-142.65;74.20;50178.75;5095199;28;20246;-70
2022/11/02 03:03:19;;;;;;;2.20;2.20;;;;;;;-142.65;74.49;50170.78;5113295;28;20230;-70
2022/11/02 03:06:21;;;;;;;2.57;2.07;;;;;;;-142.65;74.47;50170.78;5113699;28;20170;-70
2022/11/02 03:09:29;;;;;;;3.80;1.80;;;;;;;-142.65;74.24;50170.78;5095988;28;20582;-70
2022/11/02 03:12:26;;;;;;;13.33;2.80;;;;;;;-142.65;74.31;50174.75;5113280;28;20201;-71
2022/11/02 03:14:59;;;;;;;8.20;2.40;;;;;;;;;;5095120;28;20248;-71
2022/11/02 03:17:40;;;;;;;2.47;1.93;;;;;;;-142.65;74.64;50170.78;5095870;28;20530;-71
2022/11/02 03:20:16;;;;;;;4.93;1.97;;;;;;;-142.65;74.74;50170.78;5098795;28;20197;-71
2022/11/02 03:22:52;;;;;;;2.40;2.20;;;;;;;-142.65;73.84;50170.78;5099250;28;20212;-71
2022/11/02 03:25:33;;;;;;;7.63;2.40;;;;;;;-142.65;73.76;50176.75;5098730;28;20280;-70
2022/11/02 03:28:06;;;;;;;6.03;2.13;;;;;;;;;;5117523;28;20180;-70
2022/11/02 03:30:41;;;;;;;7.87;1.83;;;;;;;-142.65;73.57;50170.78;5098675;28;20188;-70
2022/11/02 03:33:30;;;;;;;2.60;2.10;;;;;;;;;;5117144;28;20201;-71
2022/11/02 03:36:11;;;;;;;2.83;2.63;;;;;;;-142.65;73.34;50174.75;5098549;28;20281;-70
2022/11/02 03:38:49;;;;;;;3.27;1.90;;;;;;;-142.65;73.29;50178.75;5117110;28;20267;-70
2022/11/02 03:41:17;;;;;;;2.37;1.47;;;;;;;;;;5098655;28;20748;-70
2022/11/02 03:43:47;;;;;;;9.27;2.43;;;;;;;-142.65;73.21;50172.78;5098484;28;20279;-70
2022/11/02 03:46:16;;;;;;;11.73;2.30;;;;;;;-142.65;73.54;50170.78;5116950;28;20628;-70
2022/11/02 03:48:49;;;;;;;3.03;2.10;;;;;;;-142.65;73.10;50168.78;5117371;28;20197;-70
2022/11/02 03:51:21;;;;;;;2.53;2.00;;;;;;;-142.65;72.83;50176.75;5081704;28;20208;-70
2022/11/02 03:54:07;;;;;;;2.30;2.10;;;;;;;-142.65;72.74;50168.78;5098376;28;20176;-70
2022/11/02 03:56:43;;;;;;;8.23;2.33;;;;;;;-142.65;73.00;50174.75;5098159;28;20541;-70
2022/11/02 03:59:12;;;;;;;2.13;1.93;;;;;;;-142.65;73.26;50170.78;5098161;28;20177;-70
2022/11/02 04:01:43;;;;;;;4.60;2.13;;;;;;;-142.65;73.35;50164.81;5097958;28;20307;-71
2022/11/02 04:04:10;;;;;;;2.83;2.30;;;;;;;-142.65;73.55;50178.75;5098337;28;20227;-71
2022/11/02 04:06:38;;;;;;;2.73;2.00;;;;;;;-142.65;73.40;50174.75;5098045;28;20648;-71
2022/11/02 04:09:06;;;;;;;3.87;2.60;;;;;;;-142.65;73.22;50180.75;5097910;28;20215;-70
2022/11/02 04:19:52;;;;;;;7.83;2.30;;;;;;;-142.65;73.48;50170.78;5098018;28;20546;-70
2022/11/02 04:25:17;;;;;;;2.50;2.40;;;;;;;-142.65;73.34;50172.78;5097665;28;20181;-70
2022/11/02 04:27:52;;;;;;;9.63;1.87;;;;;;;-142.65;73.41;50170.78;5098501;28;20249;-70
2022/11/02 04:30:23;;;;;;;4.70;1.90;;;;;;;-142.65;73.67;50164.81;5081832;28;20280;-71
2022/11/02 04:35:47;;;;;;;2.40;2.30;;;;;;;-142.65;73.24;50162.81;5097493;28;20239;-70
2022/11/02 04:43:47;;;;;;;6.03;2.30;;;;;;;-142.65;73.82;50176.75;5097804;28;20204;-70
2022/11/02 04:46:15;;;;;;;10.83;2.83;;;;;;;-142.65;74.44;50182.72;5097232;28;20189;-70
2022/11/02 04:48:42;;;;;;;2.60;2.40;;;;;;;-142.65;74.18;50170.78;5097393;28;20200;-70
2022/11/02 04:51:09;;;;;;;3.97;2.60;;;;;;;-142.65;74.17;50174.75;5097083;28;20682;-70
2022/11/02 04:53:36;;;;;;;3.10;2.83;;;;;;;;;;5097048;28;20744;-71
2022/11/02 04:56:04;;;;;;;2.03;1.93;;;;;;;-142.65;74.04;50182.72;5096942;28;20663;-70
2022/11/02 04:58:31;;;;;;;4.43;2.13;;;;;;;;;;5096954;28;20689;-70
2022/11/02 05:01:07;;;;;;;4.57;2.17;;;;;;;-142.65;73.71;50174.75;5097672;28;20223;-70
2022/11/02 05:03:34;;;;;;;2.77;2.57;;;;;;;-142.65;74.01;50178.75;5097412;28;20565;-70
2022/11/02 05:06:02;;;;;;;3.00;2.20;;;;;;;-142.65;73.97;50170.78;5096889;28;20300;-70
2022/11/02 05:08:29;;;;;;;4.67;2.27;;;;;;;-142.65;74.32;50174.75;5096729;28;20538;-70
2022/11/02 05:10:57;;;;;;;3.93;2.07;;;;;;;-142.65;74.37;50164.81;5097179;28;20212;-71
2022/11/02 05:13:25;;;;;;;3.87;1.83;;;;;;;-142.65;74.04;50170.78;5096658;28;20217;-70
2022/11/02 05:15:58;;;;;;;3.47;2.20;;;;;;;-142.65;73.98;50172.78;5096668;28;20189;-70
2022/11/02 05:18:26;;;;;;;6.17;2.47;;;;;;;-142.65;74.09;50178.75;5097476;28;20233;-71
2022/11/02 05:20:57;;;;;;;9.80;2.00;;;;;;;-142.65;73.85;50176.75;5096519;28;20203;-70
2022/11/02 05:23:27;;;;;;;5.83;1.87;;;;;;;-142.65;73.88;50178.75;5096725;28;20204;-71
2022/11/02 05:25:55;;;;;;;1.63;1.53;;;;;;;-142.65;74.25;50174.75;5096457;28;20554;-71
2022/11/02 05:28:24;;;;;;;4.40;2.10;;;;;;;-142.65;73.82;50168.78;5096380;28;20216;-71
2022/11/02 05:30:50;;;;;;;11.73;2.83;;;;;;;-142.65;73.38;50170.78;5114649;28;20213;-70
2022/11/02 05:33:17;;;;;;;4.33;2.03;;;;;;;-142.65;73.62;50174.75;5114729;28;20210;-70
2022/11/02 05:35:44;;;;;;;3.33;2.03;;;;;;;-142.65;74.06;50170.78;5096288;28;20220;-71
2022/11/02 05:38:11;;;;;;;4.83;1.87;;;;;;;-142.65;74.13;50178.75;5115015;28;20185;-71
2022/11/02 05:40:39;;;;;;;5.40;1.60;;;;;;;-142.65;73.90;50180.75;5096193;28;20291;-71
2022/11/02 05:43:08;;;;;;;3.23;2.23;;;;;;;;;;5096249;28;20299;-71
2022/11/02 05:45:36;;;;;;;16.43;2.90;;;;;;;-142.65;74.26;50168.78;5096911;28;20222;-71
2022/11/02 05:48:05;;;;;;;4.20;1.93;;;;;;;-142.65;74.16;50168.78;5114536;28;20550;-70
2022/11/02 05:50:32;;;;;;;2.00;1.83;;;;;;;-142.65;74.42;50178.75;5114301;28;20180;-71
2022/11/02 05:53:00;;;;;;;3.30;2.57;;;;;;;;;;5115354;28;20215;-71
2022/11/02 05:55:27;;;;;;;8.67;2.40;;;;;;;-142.65;74.11;50174.75;5114126;28;20616;-71
2022/11/02 05:57:55;;;;;;;3.97;2.57;;;;;;;-142.65;74.47;50174.75;5114415;28;20174;-71
2022/11/02 06:00:23;;;;;;;6.33;2.07;;;;;;;-142.65;73.98;50180.75;5114008;28;20196;-70
2022/11/02 06:02:57;;;;;;;6.13;1.70;;;;;;;-142.65;74.32;50170.78;5113914;28;20205;-71
2022/11/02 06:05:24;;;;;;;5.27;1.87;;;;;;;;;;5114263;28;20199;-71
2022/11/02 06:07:52;;;;;;;3.93;1.73;;;;;;;-142.65;74.50;50170.78;5114000;28;20170;-71
2022/11/02 06:10:18;;;;;;;5.33;2.03;;;;;;;-142.65;74.40;50170.78;5113898;28;20192;-70
2022/11/02 06:12:44;;;;;;;8.73;2.37;;;;;;;-142.65;74.37;50174.75;5113689;28;20193;-71
2022/11/02 06:15:11;;;;;;;4.03;1.97;;;;;;;-142.65;74.25;50178.75;5113824;28;20200;-70
2022/11/02 06:17:38;;;;;;;11.33;2.50;;;;;;;-142.65;74.58;50178.75;5114180;28;20185;-71
2022/11/02 06:20:06;;;;;;;7.20;2.47;;;;;;;-142.65;74.39;50174.75;5113797;28;20192;-70
2022/11/02 06:22:39;;;;;;;6.43;2.53;;;;;;;-142.65;74.88;50170.78;5113573;28;20211;-70
2022/11/02 06:25:06;;;;;;;3.30;2.30;;;;;;;-142.65;74.74;50170.78;5114304;28;20526;-70
2022/11/02 06:27:33;;;;;;;4.80;2.57;;;;;;;-142.65;74.69;50182.72;5113986;28;20193;-70
2022/11/02 06:30:00;;;;;;;6.07;2.50;;;;;;;-142.65;74.92;50170.78;5095291;28;20246;-71
2022/11/02 06:32:26;;;;;;;13.53;3.00;;;;;;;-142.65;74.72;50168.78;5113567;28;20201;-71
2022/11/02 06:34:53;;;;;;;3.80;2.37;;;;;;;-142.65;74.47;50174.75;5113831;28;20199;-70
2022/11/02 06:37:19;;;;;;;10.97;3.13;;;;;;;-142.65;74.30;50170.78;5113630;28;20198;-71
2022/11/02 06:39:45;;;;;;;12.37;2.33;;;;;;;-142.65;74.76;50174.75;5113537;28;20186;-70
2022/11/02 06:42:12;;;;;;;8.97;3.00;;;;;;;-142.65;75.15;50174.75;5113720;28;20615;-70
2022/11/02 06:44:38;;;;;;;3.50;2.90;;;;;;;;;;5113530;28;20185;-71
2022/11/02 06:47:05;;;;;;;6.67;3.23;;;;;;;-142.65;74.64;50172.78;5114326;28;20204;-71
2022/11/02 06:49:31;;;;;;;4.47;2.90;;;;;;;-142.65;74.69;50170.78;5113747;28;20551;-70
2022/11/02 06:51:58;;;;;;;5.40;2.73;;;;;;;-142.65;74.17;50174.75;5113392;28;20687;-70
2022/11/02 06:54:24;;;;;;;3.30;3.00;;;;;;;-142.65;74.71;50174.75;5116356;28;20259;-71
2022/11/02 06:56:50;;;;;;;9.87;2.70;;;;;;;-142.65;74.93;50174.75;5117655;28;20181;-71
2022/11/02 06:59:17;;;;;;;5.80;2.57;;;;;;;-142.65;74.62;50180.75;5117478;28;20181;-70
2022/11/02 07:01:43;;;;;;;8.90;2.43;;;;;;;-142.65;74.06;50170.78;5117632;28;20197;-71
2022/11/02 07:04:10;;;;;;;13.03;2.60;;;;;;;-142.65;74.06;50174.75;5117941;28;20213;-70
2022/11/02 07:06:36;;;;;;;11.60;2.43;;;;;;;-142.65;74.09;50172.78;5117361;28;20185;-70
2022/11/02 07:09:02;;;;;;;6.70;2.47;;;;;;;-142.65;74.46;50174.75;5117265;28;20217;-70
2022/11/02 07:11:29;;;;;;;5.90;2.30;;;;;;;;;;5117217;28;20209;-70
2022/11/02 07:13:55;;;;;;;6.73;2.50;;;;;;;-142.65;74.39;50180.75;5117358;28;20192;-71
2022/11/02 07:16:21;;;;;;;8.80;3.13;;;;;;;-142.65;74.36;50174.75;5117398;28;20186;-71
2022/11/02 07:18:48;;;;;;;6.87;2.90;;;;;;;-142.65;73.76;50170.78;5117064;28;20656;-70
2022/11/02 07:21:14;;;;;;;4.60;2.33;;;;;;;-142.65;74.40;50170.78;5117289;28;20181;-71
2022/11/02 07:23:40;;;;;;;2.83;2.53;;;;;;;-142.65;73.99;50168.78;5116977;28;20208;-71
2022/11/02 07:26:07;;;;;;;5.27;2.70;;;;;;;;;;5117025;28;20203;-71
2022/11/02 07:28:35;;;;;;;10.00;2.40;;;;;;;-142.65;73.89;50178.75;5117478;28;20195;-70
2022/11/02 07:31:02;;;;;;;9.80;2.37;;;;;;;-142.65;73.66;50178.75;5116852;28;20197;-71
2022/11/02 07:33:28;;;;;;;5.37;2.63;;;;;;;-142.65;73.31;50168.78;5117149;28;20212;-71
2022/11/02 07:35:54;;;;;;;7.30;2.43;;;;;;;;;;5116802;28;20185;-71
2022/11/02 07:38:20;;;;;;;5.03;1.53;;;;;;;-142.65;74.17;50178.75;5116765;28;20196;-71
2022/11/02 07:40:49;;;;;;;2.40;2.30;;;;;;;-142.65;73.47;50170.78;5116998;28;20195;-70
2022/11/02 07:43:15;;;;;;;2.67;2.47;;;;;;;-142.65;73.36;50176.75;5116504;28;20209;-71
2022/11/02 07:46:05;;;;;;;9.27;2.37;;;;;;;-142.65;73.03;50170.78;5110763;28;20211;-71
2022/11/02 07:48:32;;;;;;;5.63;2.33;;;;;;;-142.65;72.95;50170.78;5116962;28;20179;-70
2022/11/02 07:50:58;;;;;;;5.83;2.40;;;;;;;-142.65;73.35;50176.75;5116931;28;20647;-71
2022/11/02 07:53:25;;;;;;;3.73;2.63;;;;;;;-142.65;73.51;50174.75;5116469;28;20182;-71
2022/11/02 07:55:51;;;;;;;7.60;3.07;;;;;;;-142.65;73.24;50168.78;5116888;28;20267;-71
2022/11/02 07:58:17;;;;;;;10.97;2.63;;;;;;;-142.65;72.66;50172.78;5116587;28;20185;-70
2022/11/02 08:00:44;;;;;;;9.10;2.87;;;;;;;-142.65;73.04;50170.78;5116345;28;20192;-71
2022/11/02 08:03:11;;;;;;;7.50;2.67;;;;;;;-142.65;72.62;50172.78;5116218;28;20209;-71
2022/11/02 08:05:40;;;;;;;4.80;3.17;;;;;;;-142.65;72.89;50170.78;5115596;28;20639;-71
2022/11/02 08:08:09;;;;;;;4.60;2.33;;;;;;;-142.65;73.03;50178.75;5116531;28;20185;-71
2022/11/02 08:10:36;;;;;;;4.30;2.37;;;;;;;-142.65;73.07;50170.78;5116158;28;20211;-70
2022/11/02 08:13:12;;;;;;;9.00;2.33;;;;;;;-142.65;72.53;50174.75;5116026;28;20209;-71
2022/11/02 08:15:38;;;;;;;4.50;2.20;;;;;;;-142.65;72.80;50176.75;5116433;28;20165;-71
2022/11/02 08:18:15;;;;;;;2.63;2.53;;;;;;;-142.65;73.03;50180.75;5116063;28;20180;-71
2022/11/02 08:20:42;;;;;;;5.67;2.77;;;;;;;-142.65;72.74;50170.78;5116560;28;20555;-71
2022/11/02 08:23:10;;;;;;;4.90;2.80;;;;;;;-142.65;73.14;50170.78;5116221;28;20216;-71
2022/11/02 08:25:37;;;;;;;6.27;2.80;;;;;;;-142.65;72.86;50178.75;5115958;28;20178;-71
2022/11/02 08:28:05;;;;;;;2.40;2.30;;;;;;;-142.65;72.96;50172.78;5116373;28;20182;-71
2022/11/02 08:30:32;;;;;;;8.13;2.27;;;;;;;-142.65;73.21;50176.75;5115811;28;20260;-71
2022/11/02 08:33:04;;;;;;;2.47;2.27;;;;;;;-142.65;73.81;50168.78;5115686;28;20705;-71
2022/11/02 08:35:31;;;;;;;3.17;2.70;;;;;;;-142.65;73.71;50172.78;5116323;28;20185;-71
2022/11/02 08:37:58;;;;;;;2.57;2.33;;;;;;;-142.65;73.13;50174.75;5115579;28;20647;-70
2022/11/02 08:40:26;;;;;;;8.43;1.90;;;;;;;-142.65;73.40;50170.78;5115853;28;20185;-71
2022/11/02 08:42:59;;;;;;;3.70;2.80;;;;;;;-142.65;73.57;50172.78;5115910;28;20219;-71
2022/11/02 08:45:27;;;;;;;8.40;2.80;;;;;;;-142.65;74.04;50174.75;5115780;28;20192;-70
2022/11/02 08:47:53;;;;;;;5.43;2.60;;;;;;;-142.65;73.93;50176.75;5115488;28;20193;-71
2022/11/02 08:50:21;;;;;;;2.90;2.23;;;;;;;-142.65;73.07;50182.72;5115993;28;20185;-71
2022/11/02 08:52:47;;;;;;;6.23;2.70;;;;;;;-142.65;73.21;50170.78;5115266;28;20216;-71
2022/11/02 08:55:14;;;;;;;5.73;2.00;;;;;;;-142.65;72.90;50170.78;5115570;28;20185;-71
2022/11/02 08:57:59;;;;;;;7.03;2.70;;;;;;;-142.65;72.71;50170.78;5115255;28;20195;-71
2022/11/02 09:00:31;;;;;;;5.80;2.73;;;;;;;-142.65;72.89;50168.78;5115771;28;20169;-71
2022/11/02 09:03:03;;;;;;;2.00;1.90;;;;;;;-142.65;71.83;50174.75;5115504;28;20297;-71
2022/11/02 09:05:35;;;;;;;3.93;2.73;;;;;;;-142.65;71.79;50174.75;5115212;28;20178;-71
2022/11/02 09:08:05;;;;;;;3.47;2.47;;;;;;;-142.65;72.49;50182.72;5115351;28;20166;-70
2022/11/02 09:10:33;;;;;;;16.13;2.37;;;;;;;;;;5115646;28;20224;-71
2022/11/02 09:13:01;;;;;;;5.13;2.77;;;;;;;-142.65;71.27;50174.75;5114881;28;20201;-71
2022/11/02 09:15:29;;;;;;;6.13;2.53;;;;;;;-142.65;70.63;50170.78;5115185;28;20193;-70
2022/11/02 09:17:55;;;;;;;3.07;1.90;;;;;;;-142.65;70.49;50168.78;5114978;28;20264;-71
2022/11/02 09:20:22;;;;;;;10.43;2.40;;;;;;;-142.65;72.55;50170.78;5115322;28;20192;-71
2022/11/02 09:22:48;;;;;;;12.70;2.77;;;;;;;-142.65;71.80;50170.78;5114726;28;20213;-71
2022/11/02 09:25:15;;;;;;;6.53;2.87;;;;;;;-142.65;72.18;50172.78;5114672;28;20666;-71
2022/11/02 09:27:42;;;;;;;10.70;2.53;;;;;;;-142.65;71.26;50170.78;5114657;28;20181;-71
2022/11/02 09:30:09;;;;;;;5.80;1.90;;;;;;;;;;5114604;28;20188;-71
2022/11/02 09:32:36;;;;;;;3.20;2.57;;;;;;;-142.65;71.12;50168.78;5115180;28;20211;-71
2022/11/02 09:35:05;;;;;;;4.53;2.00;;;;;;;-142.65;70.96;50170.78;5115048;28;20184;-71
2022/11/02 09:37:31;;;;;;;8.10;2.30;;;;;;;-142.65;70.88;50170.78;5115337;28;20216;-71
2022/11/02 09:39:58;;;;;;;6.63;1.63;;;;;;;-142.65;70.62;50162.81;5114736;28;20184;-71
2022/11/02 09:42:38;;;;;;;4.57;2.87;;;;;;;-142.65;70.84;50174.75;5114295;28;20201;-71
2022/11/02 09:45:06;;;;;;;6.13;2.37;;;;;;;;;;5114853;28;20200;-71
2022/11/02 09:47:42;;;;;;;3.23;2.50;;;;;;;-142.65;69.36;50178.75;5114367;28;20667;-71
2022/11/02 09:50:58;;;;;;;2.83;2.50;;;;;;;-142.65;69.58;50168.78;5114186;28;20656;-70
2022/11/02 09:53:37;;;;;;;6.53;2.57;;;;;;;-142.65;68.08;50170.78;5071932;28;20231;-71
2022/11/02 09:56:05;;;;;;;7.63;3.17;;;;;;;-142.65;68.11;50170.78;5114220;28;20173;-70
2022/11/02 09:58:34;;;;;;;11.30;3.23;;;;;;;;;;5114097;28;20181;-71
2022/11/02 10:01:12;;;;;;;16.93;3.03;;;;;;;-142.65;68.14;50170.78;5114018;28;20188;-71
2022/11/02 10:04:08;;;;;;;8.17;2.50;;;;;;;-142.65;68.03;50170.78;5114272;28;20254;-71
2022/11/02 10:06:40;;;;;;;5.10;2.70;;;;;;;-142.65;67.90;50170.78;5113622;28;20196;-71
2022/11/02 10:09:15;;;;;;;2.47;2.37;;;;;;;-142.65;67.24;50170.78;5114524;28;20185;-71
2022/11/02 10:11:51;;;;;;;10.67;3.57;;;;;;;-142.65;67.42;50172.78;5114226;28;20203;-71
2022/11/02 10:14:24;;;;;;;5.67;2.77;;;;;;;-142.65;67.73;50170.78;5113939;28;20185;-71
2022/11/02 10:17:05;;;;;;;3.63;2.23;;;;;;;-142.65;66.22;50178.75;5114353;28;20290;-71
2022/11/02 10:19:37;;;;;;;6.07;2.53;;;;;;;-142.65;65.46;50170.78;5114275;28;20196;-71
2022/11/02 10:22:03;;;;;;;3.70;3.00;;;;;;;;;;5115874;28;20212;-71
2022/11/02 10:24:32;;;;;;;2.67;2.47;;;;;;;;;;5113892;28;20205;-71
2022/11/02 10:27:00;;;;;;;11.20;2.20;;;;;;;-142.65;64.89;50180.75;5114138;28;20199;-71
2022/11/02 10:29:58;;;;;;;6.90;3.13;;;;;;;-142.65;65.28;50176.75;5113622;28;20522;-71
2022/11/02 10:32:25;;;;;;;7.40;3.13;;;;;;;-142.65;65.33;50172.78;5113754;28;20212;-71
2022/11/02 10:34:51;;;;;;;6.63;2.73;;;;;;;;;;5114224;28;20188;-71
2022/11/02 10:37:57;;;;;;;8.30;2.97;;;;;;;-142.65;64.13;50182.72;5113979;28;20266;-71
2022/11/02 10:41:01;;;;;;;7.57;2.47;;;;;;;-142.65;64.07;50172.78;5113951;28;20179;-71
2022/11/02 10:43:55;;;;;;;4.70;2.27;;;;;;;-142.65;63.98;50178.75;5058152;28;20228;-71
2022/11/02 10:46:25;;;;;;;2.97;1.77;;;;;;;-142.65;64.81;50170.78;5113817;28;20188;-71
2022/11/02 10:48:58;;;;;;;2.73;1.83;;;;;;;;;;5114122;28;20175;-71
2022/11/02 10:51:25;;;;;;;4.37;2.23;;;;;;;-142.65;62.57;50168.78;5113732;28;20696;-72
2022/11/02 10:53:51;;;;;;;7.83;2.23;;;;;;;-142.65;62.24;50170.78;5113485;28;20193;-71
2022/11/02 10:56:32;;;;;;;2.90;1.90;;;;;;;-142.65;62.24;50172.78;5113971;28;20209;-71
2022/11/02 10:59:07;;;;;;;8.37;2.40;;;;;;;-142.65;61.21;50170.78;5113764;28;20646;-71
2022/11/02 11:01:34;;;;;;;6.63;2.50;;;;;;;-142.65;62.93;50176.75;5113357;28;20214;-71
2022/11/02 11:04:05;;;;;;;4.43;2.23;;;;;;;-142.65;63.34;50168.78;5113856;28;20683;-71
2022/11/02 11:06:41;;;;;;;5.80;2.53;;;;;;;-142.65;62.68;50182.72;5113822;28;20181;-71
2022/11/02 11:09:30;;;;;;;4.20;2.30;;;;;;;-142.65;62.13;50176.75;5113698;28;20176;-71
2022/11/02 11:11:58;;;;;;;13.00;3.33;;;;;;;;;;5113265;28;20573;-71
2022/11/02 11:14:28;;;;;;;8.17;2.17;;;;;;;-142.65;59.53;50170.78;5113266;28;20671;-71
2022/11/02 11:17:35;;;;;;;2.50;2.33;;;;;;;-142.65;59.97;50164.81;5113081;28;20261;-71
2022/11/02 11:20:38;;;;;;;5.30;1.80;;;;;;;-142.65;60.89;50172.78;5113061;28;20238;-71
2022/11/02 11:23:14;;;;;;;2.43;2.13;;;;;;;-142.65;60.37;50168.78;5113183;28;20652;-71
2022/11/02 11:25:41;;;;;;;1.70;1.60;;;;;;;-142.65;61.36;50172.78;5095504;28;20173;-71
2022/11/02 11:28:28;;;;;;;4.43;1.80;;;;;;;-142.65;62.24;50180.75;5113095;28;20670;-70
2022/11/02 11:31:08;;;;;;;1.80;1.57;;;;;;;;;;5113410;28;20200;-71
2022/11/02 11:33:53;;;;;;;2.43;1.67;;;;;;;-142.65;59.33;50170.78;5113091;28;20521;-71
2022/11/02 11:36:38;;;;;;;2.10;1.40;;;;;;;-142.65;59.57;50170.78;5113158;28;20185;-71
2022/11/02 11:39:21;;;;;;;7.10;2.13;;;;;;;-142.65;60.42;50174.75;5113609;28;20191;-71
2022/11/02 11:41:47;;;;;;;8.07;2.30;;;;;;;-142.65;60.76;50174.75;5116299;28;20209;-71
2022/11/02 11:44:14;;;;;;;5.50;1.67;;;;;;;;;;5116629;28;20603;-70
2022/11/02 11:46:42;;;;;;;3.67;1.90;;;;;;;;;;5116633;28;20184;-71
2022/11/02 11:49:30;;;;;;;6.50;3.17;;;;;;;-142.65;60.20;50178.75;5116599;28;20189;-71
2022/11/02 11:52:24;;;;;;;4.20;2.43;;;;;;;-142.65;57.83;50174.75;5116519;28;20209;-71
2022/11/02 11:55:19;;;;;;;3.13;2.93;;;;;;;-142.65;57.63;50170.78;5116823;28;20212;-70
2022/11/02 11:57:45;;;;;;;3.43;3.00;;;;;;;-142.65;57.87;50170.78;5116777;28;20181;-71
2022/11/02 12:00:27;;;;;;;6.53;3.50;;;;;;;-142.65;58.53;50170.78;5116401;28;20655;-71
2022/11/02 12:03:08;;;;;;;2.30;2.20;;;;;;;-142.65;58.01;50178.75;5116403;28;20212;-71
2022/11/02 12:05:56;;;;;;;2.10;1.90;;;;;;;-142.65;57.71;50168.78;5116189;28;20203;-70
2022/11/02 12:08:41;;;;;;;5.50;1.77;;;;;;;;;;5116284;28;20178;-71
2022/11/02 12:11:34;;;;;;;2.30;2.20;;;;;;;-142.65;58.59;50178.75;5116697;28;20173;-71
2022/11/02 12:14:36;;;;;;;1.50;1.50;;;;;;;-142.65;58.02;50168.78;5116159;28;20185;-71
2022/11/02 12:17:21;;;;;;;3.57;2.73;;;;;;;-142.65;58.41;50172.78;5116395;28;20181;-71